Tessa Pg — MJBU6 — position and weather

sailwx.info

Track history (hours):
 
Tides and Currents Weather Stations Pressure Air Temp Water Temp Dewpoint Dewpoint Depression Visibility Wind Speed Wind Dir Waves Ship Positions

Tessa Pg

Last reported at 2018-Apr-21 22:28 UTC. Time now 2018-Apr-21 22:50 UTC.
Position N 17°10' W 061°55'.

Length 122 m; draft 4.9 m.

Type: Tanker. MMSI: 235009020.

Date/timePositionNaut miles runAvg speedWind from/ knotsBaromVisibWave heightAir tempDewpointWater temp
2018-Apr-21 22:28N 17°10' W 061°55'0 0.0
2018-Apr-21 21:58N 17°10' W 061°55'0 0.0
2018-Apr-21 21:28N 17°10' W 061°55'0 0.0
2018-Apr-21 20:58N 17°10' W 061°55'0 0.0
2018-Apr-21 20:28N 17°10' W 061°55'0 0.0
2018-Apr-21 19:58N 17°10' W 061°55'0 0.0
2018-Apr-21 19:28N 17°10' W 061°55'0 0.0
2018-Apr-21 18:58N 17°10' W 061°55'0 0.0
2018-Apr-21 18:28N 17°10' W 061°55'0 0.0
2018-Apr-21 17:58N 17°10' W 061°55'0 0.0
2018-Apr-21 17:28N 17°10' W 061°55'0 0.0
2018-Apr-21 16:58N 17°10' W 061°55'0 0.0
2018-Apr-21 16:28N 17°10' W 061°55'0 0.0
2018-Apr-21 15:58N 17°10' W 061°55'0 0.0
2018-Apr-21 15:28N 17°10' W 061°55'0 0.0
2018-Apr-21 14:58N 17°10' W 061°55'0 0.0
2018-Apr-21 14:28N 17°10' W 061°55'0 0.0
2018-Apr-21 13:58N 17°10' W 061°55'0 0.0
2018-Apr-21 13:28N 17°10' W 061°55'0 0.0
2018-Apr-21 12:58N 17°10' W 061°55'0 0.0
2018-Apr-21 12:28N 17°10' W 061°55'0 0.0
2018-Apr-21 11:58N 17°10' W 061°55'0 0.0
2018-Apr-21 11:28N 17°10' W 061°55'0 0.0
2018-Apr-21 10:58N 17°10' W 061°55'0 0.2
2018-Apr-21 10:30N 17°10' W 061°55'3 6.9
2018-Apr-21 10:00N 17°08' W 061°58'611.2
2018-Apr-21 09:30N 17°02' W 061°58'611.2
2018-Apr-21 09:00N 16°56' W 061°59'612.5
2018-Apr-21 08:30N 16°50' W 061°59'612.4
2018-Apr-21 08:00N 16°44' W 062°00'611.9
2018-Apr-21 07:30N 16°38' W 062°01'612.1
2018-Apr-21 07:00N 16°32' W 062°01'611.6
2018-Apr-21 06:30N 16°26' W 062°02'611.7
2018-Apr-21 06:00N 16°20' W 062°02'611.6
2018-Apr-21 05:30N 16°15' W 062°03'611.6
2018-Apr-21 05:00N 16°09' W 062°03'4911.9
2018-Apr-21 00:51N 15°24' W 061°41'5613.0
2018-Apr-20 20:33N 14°33' W 061°18'113.7
2018-Apr-20 20:30N 14°33' W 061°18'813.9
2018-Apr-20 19:58N 14°26' W 061°14'614.2
2018-Apr-20 19:31N 14°20' W 061°11'713.8
2018-Apr-20 19:01N 14°14' W 061°07'713.5
2018-Apr-20 18:29N 14°08' W 061°04'4 0.3
2018-Apr-20 05:09N 14°05' W 061°02'412.1
2018-Apr-20 04:50N 14°08' W 061°03'412.8
2018-Apr-20 04:30N 14°12' W 061°06'612.1
2018-Apr-20 04:00N 14°18' W 061°09'612.6
2018-Apr-20 03:30N 14°24' W 061°10'612.1
2018-Apr-20 03:00N 14°30' W 061°10'612.0
2018-Apr-20 02:29N 14°35' W 061°06'3 5.2
2018-Apr-20 02:00N 14°36' W 061°04'0 0.0
2018-Apr-19 18:11N 14°36' W 061°04'0 0.0
2018-Apr-19 18:00N 14°36' W 061°04'1 1.8
2018-Apr-19 17:30N 14°35' W 061°04'6 9.1
2018-Apr-19 16:50N 14°37' W 061°11'411.3
2018-Apr-19 16:30N 14°38' W 061°14'4211.7
2018-Apr-19 12:52N 15°14' W 061°38'512.5
2018-Apr-19 12:29N 15°18' W 061°41'7111.8
2018-Apr-19 06:28N 16°18' W 062°20'511.2
2018-Apr-19 06:00N 16°22' W 062°23'510.8
2018-Apr-19 05:30N 16°27' W 062°26'610.8
2018-Apr-19 04:58N 16°31' W 062°30'510.4
2018-Apr-19 04:30N 16°35' W 062°33'510.4
2018-Apr-19 04:00N 16°40' W 062°35'28 8.8
2018-Apr-19 00:51N 17°03' W 062°51'2811.8
2018-Apr-18 22:30N 17°27' W 063°05'712.7
2018-Apr-18 21:56N 17°35' W 063°05'812.6
2018-Apr-18 21:17N 17°43' W 063°07'412.5
2018-Apr-18 20:59N 17°46' W 063°08'612.3
2018-Apr-18 20:30N 17°52' W 063°09'612.3
2018-Apr-18 20:00N 17°58' W 063°10'612.1
2018-Apr-18 19:28N 18°04' W 063°11'511.0
2018-Apr-18 18:59N 18°05' W 063°06'0 0.8
2018-Apr-18 18:22N 18°05' W 063°05'0 0.0
2018-Apr-18 17:40N 18°05' W 063°05'0 0.0
2018-Apr-18 17:28N 18°05' W 063°05'0 0.0
2018-Apr-18 16:58N 18°05' W 063°05'0 0.0
2018-Apr-18 16:28N 18°05' W 063°05'0 0.0
2018-Apr-18 15:58N 18°05' W 063°05'0 0.0
2018-Apr-18 15:28N 18°05' W 063°05'0 0.0
2018-Apr-18 14:58N 18°05' W 063°05'0 0.0
2018-Apr-18 14:28N 18°05' W 063°05'0 0.0
2018-Apr-18 13:58N 18°05' W 063°05'0 0.0
2018-Apr-18 13:28N 18°05' W 063°05'0 0.0
2018-Apr-18 12:43N 18°05' W 063°05'0 0.0
2018-Apr-18 12:28N 18°05' W 063°05'0 0.0
2018-Apr-18 11:58N 18°05' W 063°05'0 0.0
2018-Apr-18 11:28N 18°05' W 063°05'0 0.0
2018-Apr-18 10:58N 18°05' W 063°05'0 0.1
2018-Apr-18 10:27N 18°05' W 063°05'1 2.2
2018-Apr-18 09:58N 18°05' W 063°06'0 0.1
2018-Apr-18 09:28N 18°05' W 063°06'0 0.0
2018-Apr-18 08:58N 18°05' W 063°06'0 0.0
2018-Apr-18 08:28N 18°05' W 063°06'0 0.1
2018-Apr-18 07:58N 18°05' W 063°06'0 0.0
2018-Apr-18 07:28N 18°05' W 063°06'0 0.0
2018-Apr-18 06:58N 18°05' W 063°06'0 0.0
2018-Apr-18 06:19N 18°05' W 063°06'0 0.1
2018-Apr-18 05:49N 18°05' W 063°06'0 0.1
2018-Apr-18 05:19N 18°05' W 063°06'0 0.1
2018-Apr-18 04:52N 18°05' W 063°06'0 0.0
2018-Apr-18 04:22N 18°05' W 063°06'0 0.0
2018-Apr-18 03:52N 18°05' W 063°06'0 0.0
2018-Apr-18 03:22N 18°05' W 063°06'0 0.0
2018-Apr-18 02:52N 18°05' W 063°06'0 0.0
2018-Apr-18 02:10N 18°05' W 063°06'0 0.0
2018-Apr-18 01:55N 18°05' W 063°06'0 0.0
2018-Apr-18 01:22N 18°05' W 063°06'0 0.1
2018-Apr-18 00:55N 18°05' W 063°06'0 0.0
2018-Apr-18 00:22N 18°05' W 063°06'0 0.0
2018-Apr-17 23:58N 18°05' W 063°06'0 0.0
2018-Apr-17 23:28N 18°05' W 063°06'0 0.0
2018-Apr-17 22:55N 18°05' W 063°06'0 0.0
2018-Apr-17 22:28N 18°05' W 063°06'0 0.0
2018-Apr-17 21:43N 18°05' W 063°06'0 1.0
2018-Apr-17 21:28N 18°05' W 063°06'5 9.2
2018-Apr-17 20:58N 18°04' W 063°11'613.0
2018-Apr-17 20:29N 17°59' W 063°07'612.7
2018-Apr-17 19:59N 17°56' W 063°01'7 0.2
2018-Apr-16 12:09N 17°55' W 062°54'210.6
2018-Apr-16 11:58N 17°55' W 062°56'4 8.6
2018-Apr-16 11:27N 17°56' W 063°01'610.3
2018-Apr-16 10:51N 17°50' W 062°58'1110.8
2018-Apr-16 09:51N 17°40' W 063°03'510.6
2018-Apr-16 09:23N 17°36' W 063°05'510.9
2018-Apr-16 08:56N 17°31' W 063°07'611.5
2018-Apr-16 08:22N 17°25' W 063°06'2312.1
2018-Apr-16 06:27N 17°06' W 062°52'2712.5
2018-Apr-16 04:17N 16°43' W 062°37'312.3
2018-Apr-16 04:00N 16°40' W 062°35'612.4
2018-Apr-16 03:30N 16°35' W 062°32'613.1
2018-Apr-16 03:00N 16°29' W 062°28'713.3
2018-Apr-16 02:28N 16°23' W 062°24'7712.5
2018-Apr-15 20:19N 15°19' W 061°41'3712.9
2018-Apr-15 17:28N 14°48' W 061°20'1214.3
2018-Apr-15 16:39N 14°38' W 061°14'213.7
2018-Apr-15 16:30N 14°37' W 061°13'612.7
2018-Apr-15 16:00N 14°34' W 061°07'1 1.4
2018-Apr-15 15:19N 14°34' W 061°06'0 0.1
2018-Apr-15 15:00N 14°34' W 061°06'0 0.0
2018-Apr-15 14:30N 14°34' W 061°06'0 0.0
2018-Apr-15 13:54N 14°34' W 061°06'0 0.0
2018-Apr-15 13:30N 14°34' W 061°06'0 0.0
2018-Apr-15 09:30N 14°34' W 061°06'0 0.0
2018-Apr-15 09:00N 14°34' W 061°06'0 0.0
2018-Apr-15 07:03N 14°34' W 061°06'0 0.0
2018-Apr-15 07:00N 14°34' W 061°06'0 0.0
2018-Apr-15 03:45N 14°34' W 061°06'0 0.0
2018-Apr-15 03:30N 14°34' W 061°06'0 0.0
2018-Apr-15 02:54N 14°34' W 061°06'0 0.0
2018-Apr-15 00:21N 14°34' W 061°06'0 0.0
2018-Apr-14 23:54N 14°34' W 061°06'0 0.0
2018-Apr-14 23:30N 14°34' W 061°06'0 0.0
2018-Apr-14 22:48N 14°34' W 061°06'0 0.0
2018-Apr-14 22:24N 14°34' W 061°06'0 0.0
2018-Apr-14 21:54N 14°34' W 061°06'0 0.0
2018-Apr-14 21:21N 14°34' W 061°06'0 0.0
2018-Apr-14 20:45N 14°34' W 061°06'0 0.0
2018-Apr-14 20:27N 14°34' W 061°06'0 0.0
2018-Apr-14 18:36N 14°34' W 061°06'0 0.0
2018-Apr-14 18:27N 14°34' W 061°06'0 0.0
2018-Apr-14 18:00N 14°34' W 061°06'0 0.0
2018-Apr-14 16:51N 14°34' W 061°06'0 0.1
2018-Apr-14 16:30N 14°34' W 061°06'0 0.0
2018-Apr-14 15:57N 14°34' W 061°06'0 0.0
2018-Apr-14 14:42N 14°34' W 061°06'0 0.0
2018-Apr-14 13:33N 14°34' W 061°06'0 0.1
2018-Apr-14 13:30N 14°34' W 061°06'0 0.0
2018-Apr-14 13:00N 14°34' W 061°06'0 0.0
2018-Apr-14 12:15N 14°34' W 061°06'0 0.0
2018-Apr-14 11:39N 14°34' W 061°06'0 0.0
2018-Apr-14 11:30N 14°34' W 061°06'0 0.0
2018-Apr-14 10:36N 14°34' W 061°06'0 0.0
2018-Apr-14 08:57N 14°34' W 061°06'0 0.0
2018-Apr-14 08:27N 14°34' W 061°06'0 0.0
2018-Apr-14 07:45N 14°34' W 061°06'0 0.0
2018-Apr-14 07:30N 14°34' W 061°06'0 0.0
2018-Apr-14 07:00N 14°34' W 061°06'0 0.0
2018-Apr-14 06:30N 14°34' W 061°06'0 0.0
2018-Apr-14 05:51N 14°34' W 061°06'0 0.0
2018-Apr-14 05:15N 14°34' W 061°06'0 0.0
2018-Apr-14 05:00N 14°34' W 061°06'0 0.0
2018-Apr-14 04:30N 14°34' W 061°06'0 0.0
2018-Apr-14 04:00N 14°34' W 061°06'0 0.0
2018-Apr-14 03:00N 14°34' W 061°06'0 0.0
2018-Apr-14 02:06N 14°34' W 061°06'0 0.0
2018-Apr-14 01:36N 14°34' W 061°06'0 0.0
2018-Apr-14 00:45N 14°34' W 061°06'0 0.1
2018-Apr-14 00:27N 14°34' W 061°06'0 0.0
2018-Apr-14 00:00N 14°34' W 061°06'0 0.0
2018-Apr-13 22:12N 14°34' W 061°06'0 0.0
2018-Apr-13 21:54N 14°34' W 061°06'0 0.0
2018-Apr-13 21:30N 14°34' W 061°06'0 0.0
2018-Apr-13 21:00N 14°34' W 061°06'0 0.0
2018-Apr-13 20:30N 14°34' W 061°06'0 0.0
2018-Apr-13 20:00N 14°34' W 061°06'0 0.0
2018-Apr-13 19:15N 14°34' W 061°06'0 0.0
2018-Apr-13 18:45N 14°34' W 061°06'0 0.0
2018-Apr-13 18:27N 14°34' W 061°06'0 0.0
2018-Apr-13 18:00N 14°34' W 061°06'0 0.0
2018-Apr-13 17:30N 14°34' W 061°06'0 0.0
2018-Apr-13 17:00N 14°34' W 061°06'0 0.0
2018-Apr-13 16:24N 14°34' W 061°06'0 0.0
2018-Apr-13 15:06N 14°34' W 061°06'0 0.0
2018-Apr-13 14:00N 14°34' W 061°06'0 0.0
2018-Apr-13 12:09N 14°34' W 061°06'0 0.0
2018-Apr-13 11:54N 14°34' W 061°06'0 0.0
2018-Apr-13 10:45N 14°34' W 061°06'0 0.1
2018-Apr-13 10:30N 14°34' W 061°06'0 0.1
2018-Apr-13 09:45N 14°34' W 061°06'0 0.1
2018-Apr-13 09:24N 14°34' W 061°06'0 0.0
2018-Apr-13 09:00N 14°34' W 061°06'0 0.1
2018-Apr-13 08:27N 14°34' W 061°06'0 0.1
2018-Apr-13 07:54N 14°34' W 061°06'0 0.0
2018-Apr-13 07:30N 14°34' W 061°06'0 0.0
2018-Apr-13 06:54N 14°34' W 061°06'0 0.0
2018-Apr-13 06:27N 14°34' W 061°06'0 0.0
2018-Apr-13 06:00N 14°34' W 061°06'0 0.1
2018-Apr-13 05:12N 14°34' W 061°06'0 0.0
2018-Apr-13 05:00N 14°34' W 061°06'0 0.0
2018-Apr-13 04:30N 14°34' W 061°06'0 0.0
2018-Apr-13 03:21N 14°34' W 061°06'0 0.0
2018-Apr-13 02:42N 14°34' W 061°06'0 0.0
2018-Apr-13 02:21N 14°34' W 061°06'0 0.0
2018-Apr-13 00:54N 14°34' W 061°06'0 0.0
2018-Apr-13 00:12N 14°34' W 061°06'0 0.1
2018-Apr-13 00:00N 14°34' W 061°06'0 0.0
2018-Apr-12 22:21N 14°34' W 061°06'0 0.1
2018-Apr-12 22:00N 14°34' W 061°06'0 0.0
2018-Apr-12 21:18N 14°34' W 061°06'0 0.0
2018-Apr-12 21:00N 14°34' W 061°06'0 0.0
2018-Apr-12 20:24N 14°34' W 061°06'0 0.0
2018-Apr-12 20:00N 14°34' W 061°06'0 0.0
2018-Apr-12 19:30N 14°34' W 061°06'0 0.0
2018-Apr-12 18:06N 14°34' W 061°06'0 0.0
2018-Apr-12 17:48N 14°34' W 061°06'0 0.0
2018-Apr-12 17:27N 14°34' W 061°06'0 0.0
2018-Apr-12 16:45N 14°34' W 061°06'0 0.0
2018-Apr-12 16:15N 14°34' W 061°06'0 0.0
2018-Apr-12 15:51N 14°34' W 061°06'0 0.0
2018-Apr-12 14:36N 14°34' W 061°06'0 0.0
2018-Apr-12 13:18N 14°34' W 061°06'0 0.1
2018-Apr-12 13:00N 14°34' W 061°06'0 0.0
2018-Apr-12 08:57N 14°34' W 061°06'0 0.0
2018-Apr-12 08:27N 14°34' W 061°06'0 0.0
2018-Apr-12 07:42N 14°34' W 061°06'0 0.0
2018-Apr-12 07:18N 14°34' W 061°06'0 0.0
2018-Apr-12 07:00N 14°34' W 061°06'0 0.0
2018-Apr-12 05:39N 14°34' W 061°06'0 0.0
2018-Apr-12 04:30N 14°34' W 061°06'0 0.0
2018-Apr-12 04:00N 14°34' W 061°06'0 0.0
2018-Apr-12 03:15N 14°34' W 061°06'  
Track history (hours):
 
Tides and Currents Weather Stations Pressure Air Temp Water Temp Dewpoint Dewpoint Depression Visibility Wind Speed Wind Dir Waves Ship Positions

Tessa Pg

Last reported at 2018-Apr-21 22:28 UTC. Time now 2018-Apr-21 22:50 UTC.
Position N 17°10' W 061°55'.

Length 122 m; draft 4.9 m.

Type: Tanker. MMSI: 235009020.

Date/timePositionNaut miles runAvg speedWind from/ knotsBaromVisibWave heightAir tempDewpointWater temp
2018-Apr-21 22:28N 17°10' W 061°55'0 0.0
2018-Apr-21 21:58N 17°10' W 061°55'0 0.0
2018-Apr-21 21:28N 17°10' W 061°55'0 0.0
2018-Apr-21 20:58N 17°10' W 061°55'0 0.0
2018-Apr-21 20:28N 17°10' W 061°55'0 0.0
2018-Apr-21 19:58N 17°10' W 061°55'0 0.0
2018-Apr-21 19:28N 17°10' W 061°55'0 0.0
2018-Apr-21 18:58N 17°10' W 061°55'0 0.0
2018-Apr-21 18:28N 17°10' W 061°55'0 0.0
2018-Apr-21 17:58N 17°10' W 061°55'0 0.0
2018-Apr-21 17:28N 17°10' W 061°55'0 0.0
2018-Apr-21 16:58N 17°10' W 061°55'0 0.0
2018-Apr-21 16:28N 17°10' W 061°55'0 0.0
2018-Apr-21 15:58N 17°10' W 061°55'0 0.0
2018-Apr-21 15:28N 17°10' W 061°55'0 0.0
2018-Apr-21 14:58N 17°10' W 061°55'0 0.0
2018-Apr-21 14:28N 17°10' W 061°55'0 0.0
2018-Apr-21 13:58N 17°10' W 061°55'0 0.0
2018-Apr-21 13:28N 17°10' W 061°55'0 0.0
2018-Apr-21 12:58N 17°10' W 061°55'0 0.0
2018-Apr-21 12:28N 17°10' W 061°55'0 0.0
2018-Apr-21 11:58N 17°10' W 061°55'0 0.0
2018-Apr-21 11:28N 17°10' W 061°55'0 0.0
2018-Apr-21 10:58N 17°10' W 061°55'0 0.2
2018-Apr-21 10:30N 17°10' W 061°55'3 6.9
2018-Apr-21 10:00N 17°08' W 061°58'611.2
2018-Apr-21 09:30N 17°02' W 061°58'611.2
2018-Apr-21 09:00N 16°56' W 061°59'612.5
2018-Apr-21 08:30N 16°50' W 061°59'612.4
2018-Apr-21 08:00N 16°44' W 062°00'611.9
2018-Apr-21 07:30N 16°38' W 062°01'612.1
2018-Apr-21 07:00N 16°32' W 062°01'611.6
2018-Apr-21 06:30N 16°26' W 062°02'611.7
2018-Apr-21 06:00N 16°20' W 062°02'611.6
2018-Apr-21 05:30N 16°15' W 062°03'611.6
2018-Apr-21 05:00N 16°09' W 062°03'4911.9
2018-Apr-21 00:51N 15°24' W 061°41'5613.0
2018-Apr-20 20:33N 14°33' W 061°18'113.7
2018-Apr-20 20:30N 14°33' W 061°18'813.9
2018-Apr-20 19:58N 14°26' W 061°14'614.2
2018-Apr-20 19:31N 14°20' W 061°11'713.8
2018-Apr-20 19:01N 14°14' W 061°07'713.5
2018-Apr-20 18:29N 14°08' W 061°04'4 0.3
2018-Apr-20 05:09N 14°05' W 061°02'412.1
2018-Apr-20 04:50N 14°08' W 061°03'412.8
2018-Apr-20 04:30N 14°12' W 061°06'612.1
2018-Apr-20 04:00N 14°18' W 061°09'612.6
2018-Apr-20 03:30N 14°24' W 061°10'612.1
2018-Apr-20 03:00N 14°30' W 061°10'612.0
2018-Apr-20 02:29N 14°35' W 061°06'3 5.2
2018-Apr-20 02:00N 14°36' W 061°04'0 0.0
2018-Apr-19 18:11N 14°36' W 061°04'0 0.0
2018-Apr-19 18:00N 14°36' W 061°04'1 1.8
2018-Apr-19 17:30N 14°35' W 061°04'6 9.1
2018-Apr-19 16:50N 14°37' W 061°11'411.3
2018-Apr-19 16:30N 14°38' W 061°14'4211.7
2018-Apr-19 12:52N 15°14' W 061°38'512.5
2018-Apr-19 12:29N 15°18' W 061°41'7111.8
2018-Apr-19 06:28N 16°18' W 062°20'511.2
2018-Apr-19 06:00N 16°22' W 062°23'510.8
2018-Apr-19 05:30N 16°27' W 062°26'610.8
2018-Apr-19 04:58N 16°31' W 062°30'510.4
2018-Apr-19 04:30N 16°35' W 062°33'510.4
2018-Apr-19 04:00N 16°40' W 062°35'28 8.8
2018-Apr-19 00:51N 17°03' W 062°51'2811.8
2018-Apr-18 22:30N 17°27' W 063°05'712.7
2018-Apr-18 21:56N 17°35' W 063°05'812.6
2018-Apr-18 21:17N 17°43' W 063°07'412.5
2018-Apr-18 20:59N 17°46' W 063°08'612.3
2018-Apr-18 20:30N 17°52' W 063°09'612.3
2018-Apr-18 20:00N 17°58' W 063°10'612.1
2018-Apr-18 19:28N 18°04' W 063°11'511.0
2018-Apr-18 18:59N 18°05' W 063°06'0 0.8
2018-Apr-18 18:22N 18°05' W 063°05'0 0.0
2018-Apr-18 17:40N 18°05' W 063°05'0 0.0
2018-Apr-18 17:28N 18°05' W 063°05'0 0.0
2018-Apr-18 16:58N 18°05' W 063°05'0 0.0
2018-Apr-18 16:28N 18°05' W 063°05'0 0.0
2018-Apr-18 15:58N 18°05' W 063°05'0 0.0
2018-Apr-18 15:28N 18°05' W 063°05'0 0.0
2018-Apr-18 14:58N 18°05' W 063°05'0 0.0
2018-Apr-18 14:28N 18°05' W 063°05'0 0.0
2018-Apr-18 13:58N 18°05' W 063°05'0 0.0
2018-Apr-18 13:28N 18°05' W 063°05'0 0.0
2018-Apr-18 12:43N 18°05' W 063°05'0 0.0
2018-Apr-18 12:28N 18°05' W 063°05'0 0.0
2018-Apr-18 11:58N 18°05' W 063°05'0 0.0
2018-Apr-18 11:28N 18°05' W 063°05'0 0.0
2018-Apr-18 10:58N 18°05' W 063°05'0 0.1
2018-Apr-18 10:27N 18°05' W 063°05'1 2.2
2018-Apr-18 09:58N 18°05' W 063°06'0 0.1
2018-Apr-18 09:28N 18°05' W 063°06'0 0.0
2018-Apr-18 08:58N 18°05' W 063°06'0 0.0
2018-Apr-18 08:28N 18°05' W 063°06'0 0.1
2018-Apr-18 07:58N 18°05' W 063°06'0 0.0
2018-Apr-18 07:28N 18°05' W 063°06'0 0.0
2018-Apr-18 06:58N 18°05' W 063°06'0 0.0
2018-Apr-18 06:19N 18°05' W 063°06'0 0.1
2018-Apr-18 05:49N 18°05' W 063°06'0 0.1
2018-Apr-18 05:19N 18°05' W 063°06'0 0.1
2018-Apr-18 04:52N 18°05' W 063°06'0 0.0
2018-Apr-18 04:22N 18°05' W 063°06'0 0.0
2018-Apr-18 03:52N 18°05' W 063°06'0 0.0
2018-Apr-18 03:22N 18°05' W 063°06'0 0.0
2018-Apr-18 02:52N 18°05' W 063°06'0 0.0
2018-Apr-18 02:10N 18°05' W 063°06'0 0.0
2018-Apr-18 01:55N 18°05' W 063°06'0 0.0
2018-Apr-18 01:22N 18°05' W 063°06'0 0.1
2018-Apr-18 00:55N 18°05' W 063°06'0 0.0
2018-Apr-18 00:22N 18°05' W 063°06'0 0.0
2018-Apr-17 23:58N 18°05' W 063°06'0 0.0
2018-Apr-17 23:28N 18°05' W 063°06'0 0.0
2018-Apr-17 22:55N 18°05' W 063°06'0 0.0
2018-Apr-17 22:28N 18°05' W 063°06'0 0.0
2018-Apr-17 21:43N 18°05' W 063°06'0 1.0
2018-Apr-17 21:28N 18°05' W 063°06'5 9.2
2018-Apr-17 20:58N 18°04' W 063°11'613.0
2018-Apr-17 20:29N 17°59' W 063°07'612.7
2018-Apr-17 19:59N 17°56' W 063°01'7 0.2
2018-Apr-16 12:09N 17°55' W 062°54'210.6
2018-Apr-16 11:58N 17°55' W 062°56'4 8.6
2018-Apr-16 11:27N 17°56' W 063°01'610.3
2018-Apr-16 10:51N 17°50' W 062°58'1110.8
2018-Apr-16 09:51N 17°40' W 063°03'510.6
2018-Apr-16 09:23N 17°36' W 063°05'510.9
2018-Apr-16 08:56N 17°31' W 063°07'611.5
2018-Apr-16 08:22N 17°25' W 063°06'2312.1
2018-Apr-16 06:27N 17°06' W 062°52'2712.5
2018-Apr-16 04:17N 16°43' W 062°37'312.3
2018-Apr-16 04:00N 16°40' W 062°35'612.4
2018-Apr-16 03:30N 16°35' W 062°32'613.1
2018-Apr-16 03:00N 16°29' W 062°28'713.3
2018-Apr-16 02:28N 16°23' W 062°24'7712.5
2018-Apr-15 20:19N 15°19' W 061°41'3712.9
2018-Apr-15 17:28N 14°48' W 061°20'1214.3
2018-Apr-15 16:39N 14°38' W 061°14'213.7
2018-Apr-15 16:30N 14°37' W 061°13'612.7
2018-Apr-15 16:00N 14°34' W 061°07'1 1.4
2018-Apr-15 15:19N 14°34' W 061°06'0 0.1
2018-Apr-15 15:00N 14°34' W 061°06'0 0.0
2018-Apr-15 14:30N 14°34' W 061°06'0 0.0
2018-Apr-15 13:54N 14°34' W 061°06'0 0.0
2018-Apr-15 13:30N 14°34' W 061°06'0 0.0
2018-Apr-15 09:30N 14°34' W 061°06'0 0.0
2018-Apr-15 09:00N 14°34' W 061°06'0 0.0
2018-Apr-15 07:03N 14°34' W 061°06'0 0.0
2018-Apr-15 07:00N 14°34' W 061°06'0 0.0
2018-Apr-15 03:45N 14°34' W 061°06'0 0.0
2018-Apr-15 03:30N 14°34' W 061°06'0 0.0
2018-Apr-15 02:54N 14°34' W 061°06'0 0.0
2018-Apr-15 00:21N 14°34' W 061°06'0 0.0
2018-Apr-14 23:54N 14°34' W 061°06'0 0.0
2018-Apr-14 23:30N 14°34' W 061°06'0 0.0
2018-Apr-14 22:48N 14°34' W 061°06'0 0.0
2018-Apr-14 22:24N 14°34' W 061°06'0 0.0
2018-Apr-14 21:54N 14°34' W 061°06'0 0.0
2018-Apr-14 21:21N 14°34' W 061°06'0 0.0
2018-Apr-14 20:45N 14°34' W 061°06'0 0.0
2018-Apr-14 20:27N 14°34' W 061°06'0 0.0
2018-Apr-14 18:36N 14°34' W 061°06'0 0.0
2018-Apr-14 18:27N 14°34' W 061°06'0 0.0
2018-Apr-14 18:00N 14°34' W 061°06'0 0.0
2018-Apr-14 16:51N 14°34' W 061°06'0 0.1
2018-Apr-14 16:30N 14°34' W 061°06'0 0.0
2018-Apr-14 15:57N 14°34' W 061°06'0 0.0
2018-Apr-14 14:42N 14°34' W 061°06'0 0.0
2018-Apr-14 13:33N 14°34' W 061°06'0 0.1
2018-Apr-14 13:30N 14°34' W 061°06'0 0.0
2018-Apr-14 13:00N 14°34' W 061°06'0 0.0
2018-Apr-14 12:15N 14°34' W 061°06'0 0.0
2018-Apr-14 11:39N 14°34' W 061°06'0 0.0
2018-Apr-14 11:30N 14°34' W 061°06'0 0.0
2018-Apr-14 10:36N 14°34' W 061°06'0 0.0
2018-Apr-14 08:57N 14°34' W 061°06'0 0.0
2018-Apr-14 08:27N 14°34' W 061°06'0 0.0
2018-Apr-14 07:45N 14°34' W 061°06'0 0.0
2018-Apr-14 07:30N 14°34' W 061°06'0 0.0
2018-Apr-14 07:00N 14°34' W 061°06'0 0.0
2018-Apr-14 06:30N 14°34' W 061°06'0 0.0
2018-Apr-14 05:51N 14°34' W 061°06'0 0.0
2018-Apr-14 05:15N 14°34' W 061°06'0 0.0
2018-Apr-14 05:00N 14°34' W 061°06'0 0.0
2018-Apr-14 04:30N 14°34' W 061°06'0 0.0
2018-Apr-14 04:00N 14°34' W 061°06'0 0.0
2018-Apr-14 03:00N 14°34' W 061°06'0 0.0
2018-Apr-14 02:06N 14°34' W 061°06'0 0.0
2018-Apr-14 01:36N 14°34' W 061°06'0 0.0
2018-Apr-14 00:45N 14°34' W 061°06'0 0.1
2018-Apr-14 00:27N 14°34' W 061°06'0 0.0
2018-Apr-14 00:00N 14°34' W 061°06'0 0.0
2018-Apr-13 22:12N 14°34' W 061°06'0 0.0
2018-Apr-13 21:54N 14°34' W 061°06'0 0.0
2018-Apr-13 21:30N 14°34' W 061°06'0 0.0
2018-Apr-13 21:00N 14°34' W 061°06'0 0.0
2018-Apr-13 20:30N 14°34' W 061°06'0 0.0
2018-Apr-13 20:00N 14°34' W 061°06'0 0.0
2018-Apr-13 19:15N 14°34' W 061°06'0 0.0
2018-Apr-13 18:45N 14°34' W 061°06'0 0.0
2018-Apr-13 18:27N 14°34' W 061°06'0 0.0
2018-Apr-13 18:00N 14°34' W 061°06'0 0.0
2018-Apr-13 17:30N 14°34' W 061°06'0 0.0
2018-Apr-13 17:00N 14°34' W 061°06'0 0.0
2018-Apr-13 16:24N 14°34' W 061°06'0 0.0
2018-Apr-13 15:06N 14°34' W 061°06'0 0.0
2018-Apr-13 14:00N 14°34' W 061°06'0 0.0
2018-Apr-13 12:09N 14°34' W 061°06'0 0.0
2018-Apr-13 11:54N 14°34' W 061°06'0 0.0
2018-Apr-13 10:45N 14°34' W 061°06'0 0.1
2018-Apr-13 10:30N 14°34' W 061°06'0 0.1
2018-Apr-13 09:45N 14°34' W 061°06'0 0.1
2018-Apr-13 09:24N 14°34' W 061°06'0 0.0
2018-Apr-13 09:00N 14°34' W 061°06'0 0.1
2018-Apr-13 08:27N 14°34' W 061°06'0 0.1
2018-Apr-13 07:54N 14°34' W 061°06'0 0.0
2018-Apr-13 07:30N 14°34' W 061°06'0 0.0
2018-Apr-13 06:54N 14°34' W 061°06'0 0.0
2018-Apr-13 06:27N 14°34' W 061°06'0 0.0
2018-Apr-13 06:00N 14°34' W 061°06'0 0.1
2018-Apr-13 05:12N 14°34' W 061°06'0 0.0
2018-Apr-13 05:00N 14°34' W 061°06'0 0.0
2018-Apr-13 04:30N 14°34' W 061°06'0 0.0
2018-Apr-13 03:21N 14°34' W 061°06'0 0.0
2018-Apr-13 02:42N 14°34' W 061°06'0 0.0
2018-Apr-13 02:21N 14°34' W 061°06'0 0.0
2018-Apr-13 00:54N 14°34' W 061°06'0 0.0
2018-Apr-13 00:12N 14°34' W 061°06'0 0.1
2018-Apr-13 00:00N 14°34' W 061°06'0 0.0
2018-Apr-12 22:21N 14°34' W 061°06'0 0.1
2018-Apr-12 22:00N 14°34' W 061°06'0 0.0
2018-Apr-12 21:18N 14°34' W 061°06'0 0.0
2018-Apr-12 21:00N 14°34' W 061°06'0 0.0
2018-Apr-12 20:24N 14°34' W 061°06'0 0.0
2018-Apr-12 20:00N 14°34' W 061°06'0 0.0
2018-Apr-12 19:30N 14°34' W 061°06'0 0.0
2018-Apr-12 18:06N 14°34' W 061°06'0 0.0
2018-Apr-12 17:48N 14°34' W 061°06'0 0.0
2018-Apr-12 17:27N 14°34' W 061°06'0 0.0
2018-Apr-12 16:45N 14°34' W 061°06'0 0.0
2018-Apr-12 16:15N 14°34' W 061°06'0 0.0
2018-Apr-12 15:51N 14°34' W 061°06'0 0.0
2018-Apr-12 14:36N 14°34' W 061°06'0 0.0
2018-Apr-12 13:18N 14°34' W 061°06'0 0.1
2018-Apr-12 13:00N 14°34' W 061°06'0 0.0
2018-Apr-12 08:57N 14°34' W 061°06'0 0.0
2018-Apr-12 08:27N 14°34' W 061°06'0 0.0
2018-Apr-12 07:42N 14°34' W 061°06'0 0.0
2018-Apr-12 07:18N 14°34' W 061°06'0 0.0
2018-Apr-12 07:00N 14°34' W 061°06'0 0.0
2018-Apr-12 05:39N 14°34' W 061°06'0 0.0
2018-Apr-12 04:30N 14°34' W 061°06'0 0.0
2018-Apr-12 04:00N 14°34' W 061°06'0 0.0
2018-Apr-12 03:15N 14°34' W 061°06'  

Dump ship's entire track history